sensor_id;sensor_type;location;lat;lon;timestamp;pressure;altitude;pressure_sealevel;temperature;humidity
73422;BME280;61637;47.760;-122.022;2022-08-19T00:00:00;101253.06099999999;;;31.4;unknown
73422;BME280;61637;47.760;-122.022;2022-08-19T00:02:00;101253.06099999999;;;31.3;unknown
73422;BME280;61637;47.760;-122.022;2022-08-19T00:04:02;101253.06099999999;;;31.0;unknown
73422;BME280;61637;47.760;-122.022;2022-08-19T00:06:00;101253.06099999999;;;30.8;unknown
73422;BME280;61637;47.760;-122.022;2022-08-19T00:08:00;101253.06099999999;;;30.6;unknown
73422;BME280;61637;47.760;-122.022;2022-08-19T00:10:00;101253.06099999999;;;30.4;unknown
73422;BME280;61637;47.760;-122.022;2022-08-19T00:12:00;101253.06099999999;;;30.1;unknown
73422;BME280;61637;47.760;-122.022;2022-08-19T00:14:00;101253.06099999999;;;29.8;unknown
73422;BME280;61637;47.760;-122.022;2022-08-19T00:16:01;101253.06099999999;;;29.6;unknown
73422;BME280;61637;47.760;-122.022;2022-08-19T00:18:00;101253.06099999999;;;29.5;unknown
73422;BME280;61637;47.760;-122.022;2022-08-19T00:20:00;101253.06099999999;;;29.3;unknown
73422;BME280;61637;47.760;-122.022;2022-08-19T00:22:00;101253.06099999999;;;29.2;unknown
73422;BME280;61637;47.760;-122.022;2022-08-19T00:24:00;101253.06099999999;;;29.2;unknown
73422;BME280;61637;47.760;-122.022;2022-08-19T00:26:00;101253.06099999999;;;29.1;unknown
73422;BME280;61637;47.760;-122.022;2022-08-19T00:28:00;101253.06099999999;;;29.0;unknown
73422;BME280;61637;47.760;-122.022;2022-08-19T00:30:00;101253.06099999999;;;28.9;unknown
73422;BME280;61637;47.760;-122.022;2022-08-19T00:32:00;101253.06099999999;;;28.8;unknown
73422;BME280;61637;47.760;-122.022;2022-08-19T00:34:00;101253.06099999999;;;28.7;unknown
73422;BME280;61637;47.760;-122.022;2022-08-19T00:36:00;101253.06099999999;;;28.6;unknown
73422;BME280;61637;47.760;-122.022;2022-08-19T00:38:00;101253.06099999999;;;28.5;unknown
73422;BME280;61637;47.760;-122.022;2022-08-19T00:40:02;101253.06099999999;;;28.4;unknown
73422;BME280;61637;47.760;-122.022;2022-08-19T00:42:01;101253.06099999999;;;28.4;unknown
73422;BME280;61637;47.760;-122.022;2022-08-19T00:44:01;101253.06099999999;;;28.4;unknown
73422;BME280;61637;47.760;-122.022;2022-08-19T00:46:00;101253.06099999999;;;28.4;unknown
73422;BME280;61637;47.760;-122.022;2022-08-19T00:48:00;101253.06099999999;;;28.4;unknown
73422;BME280;61637;47.760;-122.022;2022-08-19T00:50:00;101253.06099999999;;;28.7;unknown
73422;BME280;61637;47.760;-122.022;2022-08-19T00:52:02;101253.06099999999;;;29.1;unknown
73422;BME280;61637;47.760;-122.022;2022-08-19T00:54:00;101253.06099999999;;;29.3;unknown
73422;BME280;61637;47.760;-122.022;2022-08-19T00:56:00;101253.06099999999;;;29.4;unknown
73422;BME280;61637;47.760;-122.022;2022-08-19T00:58:02;101253.06099999999;;;29.4;unknown
73422;BME280;61637;47.760;-122.022;2022-08-19T01:00:00;101253.06099999999;;;29.3;unknown
73422;BME280;61637;47.760;-122.022;2022-08-19T01:02:00;101253.06099999999;;;29.3;unknown
73422;BME280;61637;47.760;-122.022;2022-08-19T01:04:00;101253.06099999999;;;29.5;unknown
73422;BME280;61637;47.760;-122.022;2022-08-19T01:06:00;101253.06099999999;;;29.8;unknown
73422;BME280;61637;47.760;-122.022;2022-08-19T01:08:01;101253.06099999999;;;29.9;unknown
73422;BME280;61637;47.760;-122.022;2022-08-19T01:10:00;101253.06099999999;;;30.1;unknown
73422;BME280;61637;47.760;-122.022;2022-08-19T01:12:00;101253.06099999999;;;30.2;unknown
73422;BME280;61637;47.760;-122.022;2022-08-19T01:14:00;101253.06099999999;;;30.3;unknown
73422;BME280;61637;47.760;-122.022;2022-08-19T01:16:01;101253.06099999999;;;30.3;unknown
73422;BME280;61637;47.760;-122.022;2022-08-19T01:18:02;101253.06099999999;;;30.3;unknown
73422;BME280;61637;47.760;-122.022;2022-08-19T01:20:00;101253.06099999999;;;30.3;unknown
73422;BME280;61637;47.760;-122.022;2022-08-19T01:22:01;101253.06099999999;;;30.3;unknown
73422;BME280;61637;47.760;-122.022;2022-08-19T01:24:00;101253.06099999999;;;30.2;unknown
73422;BME280;61637;47.760;-122.022;2022-08-19T01:26:00;101253.06099999999;;;30.1;unknown
73422;BME280;61637;47.760;-122.022;2022-08-19T01:28:00;101253.06099999999;;;29.9;unknown
73422;BME280;61637;47.760;-122.022;2022-08-19T01:30:00;101253.06099999999;;;29.9;unknown
73422;BME280;61637;47.760;-122.022;2022-08-19T01:32:00;101253.06099999999;;;30.0;unknown
73422;BME280;61637;47.760;-122.022;2022-08-19T01:34:00;101253.06099999999;;;29.9;unknown
73422;BME280;61637;47.760;-122.022;2022-08-19T01:36:04;101253.06099999999;;;30.0;unknown
73422;BME280;61637;47.760;-122.022;2022-08-19T01:38:01;101253.06099999999;;;30.1;unknown
73422;BME280;61637;47.760;-122.022;2022-08-19T01:40:00;101253.06099999999;;;30.1;unknown
73422;BME280;61637;47.760;-122.022;2022-08-19T01:42:00;101253.06099999999;;;30.2;unknown
73422;BME280;61637;47.760;-122.022;2022-08-19T01:44:00;101253.06099999999;;;30.2;unknown
73422;BME280;61637;47.760;-122.022;2022-08-19T01:46:00;101253.06099999999;;;30.1;unknown
73422;BME280;61637;47.760;-122.022;2022-08-19T01:48:00;101253.06099999999;;;30.1;unknown
73422;BME280;61637;47.760;-122.022;2022-08-19T01:50:00;101253.06099999999;;;29.9;unknown
73422;BME280;61637;47.760;-122.022;2022-08-19T01:52:00;101253.06099999999;;;29.8;unknown
73422;BME280;61637;47.760;-122.022;2022-08-19T01:54:00;101253.06099999999;;;29.6;unknown
73422;BME280;61637;47.760;-122.022;2022-08-19T01:56:00;101253.06099999999;;;29.5;unknown
73422;BME280;61637;47.760;-122.022;2022-08-19T01:58:01;101253.06099999999;;;29.4;unknown
73422;BME280;61637;47.760;-122.022;2022-08-19T02:00:00;101253.06099999999;;;29.2;unknown
73422;BME280;61637;47.760;-122.022;2022-08-19T02:02:00;101253.06099999999;;;29.1;unknown
73422;BME280;61637;47.760;-122.022;2022-08-19T02:04:01;101253.06099999999;;;28.9;unknown
73422;BME280;61637;47.760;-122.022;2022-08-19T02:06:01;101253.06099999999;;;28.7;unknown
73422;BME280;61637;47.760;-122.022;2022-08-19T02:08:00;101253.06099999999;;;28.6;unknown
73422;BME280;61637;47.760;-122.022;2022-08-19T02:10:01;101253.06099999999;;;28.5;unknown
73422;BME280;61637;47.760;-122.022;2022-08-19T02:12:00;101253.06099999999;;;28.3;unknown
73422;BME280;61637;47.760;-122.022;2022-08-19T02:14:01;101253.06099999999;;;28.2;unknown
73422;BME280;61637;47.760;-122.022;2022-08-19T02:16:00;101253.06099999999;;;28.1;unknown
73422;BME280;61637;47.760;-122.022;2022-08-19T02:18:00;101253.06099999999;;;28.2;unknown
73422;BME280;61637;47.760;-122.022;2022-08-19T02:20:00;101253.06099999999;;;28.4;unknown
73422;BME280;61637;47.760;-122.022;2022-08-19T02:22:00;101253.06099999999;;;28.7;unknown
73422;BME280;61637;47.760;-122.022;2022-08-19T02:24:00;101253.06099999999;;;28.7;unknown
73422;BME280;61637;47.760;-122.022;2022-08-19T02:26:00;101253.06099999999;;;28.7;unknown
73422;BME280;61637;47.760;-122.022;2022-08-19T02:28:00;101253.06099999999;;;28.6;unknown
73422;BME280;61637;47.760;-122.022;2022-08-19T02:30:01;101253.06099999999;;;28.5;unknown
73422;BME280;61637;47.760;-122.022;2022-08-19T02:32:00;101253.06099999999;;;28.4;unknown
73422;BME280;61637;47.760;-122.022;2022-08-19T02:34:00;101253.06099999999;;;28.3;unknown
73422;BME280;61637;47.760;-122.022;2022-08-19T02:36:02;101253.06099999999;;;28.3;unknown
73422;BME280;61637;47.760;-122.022;2022-08-19T02:38:00;101253.06099999999;;;28.2;unknown
73422;BME280;61637;47.760;-122.022;2022-08-19T02:40:00;101253.06099999999;;;28.2;unknown
73422;BME280;61637;47.760;-122.022;2022-08-19T02:42:00;101253.06099999999;;;28.1;unknown
73422;BME280;61637;47.760;-122.022;2022-08-19T02:44:01;101253.06099999999;;;27.9;unknown
73422;BME280;61637;47.760;-122.022;2022-08-19T02:46:00;101253.06099999999;;;27.9;unknown
73422;BME280;61637;47.760;-122.022;2022-08-19T02:48:00;101253.06099999999;;;27.8;unknown
73422;BME280;61637;47.760;-122.022;2022-08-19T02:50:01;101253.06099999999;;;27.7;unknown
73422;BME280;61637;47.760;-122.022;2022-08-19T02:52:00;101253.06099999999;;;27.6;unknown
73422;BME280;61637;47.760;-122.022;2022-08-19T02:54:01;101253.06099999999;;;27.4;unknown
73422;BME280;61637;47.760;-122.022;2022-08-19T02:56:00;101253.06099999999;;;27.3;unknown
73422;BME280;61637;47.760;-122.022;2022-08-19T02:58:00;101253.06099999999;;;27.2;unknown
73422;BME280;61637;47.760;-122.022;2022-08-19T03:00:00;101253.06099999999;;;27.2;unknown
73422;BME280;61637;47.760;-122.022;2022-08-19T03:02:00;101253.06099999999;;;27.1;unknown
73422;BME280;61637;47.760;-122.022;2022-08-19T03:04:03;101253.06099999999;;;27.0;unknown
73422;BME280;61637;47.760;-122.022;2022-08-19T03:06:03;101253.06099999999;;;26.9;unknown
73422;BME280;61637;47.760;-122.022;2022-08-19T03:08:00;101253.06099999999;;;26.8;unknown
73422;BME280;61637;47.760;-122.022;2022-08-19T03:10:00;101253.06099999999;;;26.8;unknown
73422;BME280;61637;47.760;-122.022;2022-08-19T03:12:00;101253.06099999999;;;26.7;unknown
73422;BME280;61637;47.760;-122.022;2022-08-19T03:14:01;101253.06099999999;;;26.6;unknown
73422;BME280;61637;47.760;-122.022;2022-08-19T03:16:04;101253.06099999999;;;26.6;unknown
73422;BME280;61637;47.760;-122.022;2022-08-19T03:18:01;101253.06099999999;;;26.4;unknown
73422;BME280;61637;47.760;-122.022;2022-08-19T03:20:00;101253.06099999999;;;26.4;unknown
73422;BME280;61637;47.760;-122.022;2022-08-19T03:22:00;101253.06099999999;;;26.6;unknown
73422;BME280;61637;47.760;-122.022;2022-08-19T03:24:01;101253.06099999999;;;26.7;unknown
73422;BME280;61637;47.760;-122.022;2022-08-19T03:26:02;101253.06099999999;;;26.7;unknown
73422;BME280;61637;47.760;-122.022;2022-08-19T03:28:00;101253.06099999999;;;26.7;unknown
73422;BME280;61637;47.760;-122.022;2022-08-19T03:30:00;101253.06099999999;;;26.6;unknown
73422;BME280;61637;47.760;-122.022;2022-08-19T03:32:01;101253.06099999999;;;26.4;unknown
73422;BME280;61637;47.760;-122.022;2022-08-19T03:34:00;101253.06099999999;;;26.3;unknown
73422;BME280;61637;47.760;-122.022;2022-08-19T03:36:03;101253.06099999999;;;26.3;unknown
73422;BME280;61637;47.760;-122.022;2022-08-19T03:38:00;101253.06099999999;;;26.2;unknown
73422;BME280;61637;47.760;-122.022;2022-08-19T03:40:01;101253.06099999999;;;26.2;unknown
73422;BME280;61637;47.760;-122.022;2022-08-19T03:42:00;101253.06099999999;;;26.1;unknown
73422;BME280;61637;47.760;-122.022;2022-08-19T03:44:00;101253.06099999999;;;25.9;unknown
73422;BME280;61637;47.760;-122.022;2022-08-19T03:46:01;101253.06099999999;;;25.8;unknown
73422;BME280;61637;47.760;-122.022;2022-08-19T03:48:00;101253.06099999999;;;25.7;unknown
73422;BME280;61637;47.760;-122.022;2022-08-19T03:50:00;101253.06099999999;;;25.6;unknown
73422;BME280;61637;47.760;-122.022;2022-08-19T03:52:00;101253.06099999999;;;25.5;unknown
73422;BME280;61637;47.760;-122.022;2022-08-19T03:54:01;101253.06099999999;;;25.4;unknown
73422;BME280;61637;47.760;-122.022;2022-08-19T03:56:00;101253.06099999999;;;25.3;unknown
73422;BME280;61637;47.760;-122.022;2022-08-19T03:58:00;101253.06099999999;;;25.3;unknown
73422;BME280;61637;47.760;-122.022;2022-08-19T04:00:00;101253.06099999999;;;25.5;unknown
73422;BME280;61637;47.760;-122.022;2022-08-19T04:02:02;101253.06099999999;;;25.9;unknown
73422;BME280;61637;47.760;-122.022;2022-08-19T04:04:01;101253.06099999999;;;26.0;unknown
73422;BME280;61637;47.760;-122.022;2022-08-19T04:06:09;101253.06099999999;;;26.1;unknown
73422;BME280;61637;47.760;-122.022;2022-08-19T04:08:00;101253.06099999999;;;26.2;unknown
73422;BME280;61637;47.760;-122.022;2022-08-19T04:10:00;101253.06099999999;;;26.1;unknown
73422;BME280;61637;47.760;-122.022;2022-08-19T04:12:00;101253.06099999999;;;26.1;unknown
73422;BME280;61637;47.760;-122.022;2022-08-19T04:14:00;101253.06099999999;;;25.9;unknown
73422;BME280;61637;47.760;-122.022;2022-08-19T04:16:01;101253.06099999999;;;25.8;unknown
73422;BME280;61637;47.760;-122.022;2022-08-19T04:18:00;101253.06099999999;;;25.7;unknown
73422;BME280;61637;47.760;-122.022;2022-08-19T04:20:00;101253.06099999999;;;25.6;unknown
73422;BME280;61637;47.760;-122.022;2022-08-19T04:22:00;101253.06099999999;;;25.6;unknown
73422;BME280;61637;47.760;-122.022;2022-08-19T04:24:00;101253.06099999999;;;25.5;unknown
73422;BME280;61637;47.760;-122.022;2022-08-19T04:26:00;101253.06099999999;;;25.4;unknown
73422;BME280;61637;47.760;-122.022;2022-08-19T04:28:00;101253.06099999999;;;25.4;unknown
73422;BME280;61637;47.760;-122.022;2022-08-19T04:30:00;101253.06099999999;;;25.4;unknown
73422;BME280;61637;47.760;-122.022;2022-08-19T04:32:00;101253.06099999999;;;25.3;unknown
73422;BME280;61637;47.760;-122.022;2022-08-19T04:34:01;101253.06099999999;;;25.2;unknown
73422;BME280;61637;47.760;-122.022;2022-08-19T04:36:00;101253.06099999999;;;25.2;unknown
73422;BME280;61637;47.760;-122.022;2022-08-19T04:38:00;101253.06099999999;;;25.1;unknown
73422;BME280;61637;47.760;-122.022;2022-08-19T04:40:01;101253.06099999999;;;25.1;unknown
73422;BME280;61637;47.760;-122.022;2022-08-19T04:42:01;101253.06099999999;;;25.0;unknown
73422;BME280;61637;47.760;-122.022;2022-08-19T04:44:00;101253.06099999999;;;24.9;unknown
73422;BME280;61637;47.760;-122.022;2022-08-19T04:46:04;101253.06099999999;;;24.9;unknown
73422;BME280;61637;47.760;-122.022;2022-08-19T04:48:00;101253.06099999999;;;25.4;unknown
73422;BME280;61637;47.760;-122.022;2022-08-19T04:50:00;101253.06099999999;;;25.8;unknown
73422;BME280;61637;47.760;-122.022;2022-08-19T04:52:00;101253.06099999999;;;26.0;unknown
73422;BME280;61637;47.760;-122.022;2022-08-19T04:54:00;101253.06099999999;;;26.1;unknown
73422;BME280;61637;47.760;-122.022;2022-08-19T04:56:03;101253.06099999999;;;26.3;unknown
73422;BME280;61637;47.760;-122.022;2022-08-19T04:58:00;101253.06099999999;;;26.6;unknown
73422;BME280;61637;47.760;-122.022;2022-08-19T05:00:00;101253.06099999999;;;26.9;unknown
73422;BME280;61637;47.760;-122.022;2022-08-19T05:02:00;101253.06099999999;;;27.1;unknown
73422;BME280;61637;47.760;-122.022;2022-08-19T05:04:02;101253.06099999999;;;27.1;unknown
73422;BME280;61637;47.760;-122.022;2022-08-19T05:06:04;101253.06099999999;;;26.9;unknown
73422;BME280;61637;47.760;-122.022;2022-08-19T05:08:00;101253.06099999999;;;26.8;unknown
73422;BME280;61637;47.760;-122.022;2022-08-19T05:10:00;101253.06099999999;;;26.6;unknown
73422;BME280;61637;47.760;-122.022;2022-08-19T05:12:00;101253.06099999999;;;26.5;unknown
73422;BME280;61637;47.760;-122.022;2022-08-19T05:14:01;101253.06099999999;;;26.4;unknown
73422;BME280;61637;47.760;-122.022;2022-08-19T05:16:00;101253.06099999999;;;26.3;unknown
73422;BME280;61637;47.760;-122.022;2022-08-19T05:18:00;101253.06099999999;;;26.2;unknown
73422;BME280;61637;47.760;-122.022;2022-08-19T05:20:00;101253.06099999999;;;26.1;unknown
73422;BME280;61637;47.760;-122.022;2022-08-19T05:22:00;101253.06099999999;;;25.9;unknown
73422;BME280;61637;47.760;-122.022;2022-08-19T05:24:00;101253.06099999999;;;25.9;unknown
73422;BME280;61637;47.760;-122.022;2022-08-19T05:26:00;101253.06099999999;;;25.8;unknown
73422;BME280;61637;47.760;-122.022;2022-08-19T05:28:00;101253.06099999999;;;25.7;unknown
73422;BME280;61637;47.760;-122.022;2022-08-19T05:30:00;101253.06099999999;;;25.6;unknown
73422;BME280;61637;47.760;-122.022;2022-08-19T05:32:01;101253.06099999999;;;25.5;unknown
73422;BME280;61637;47.760;-122.022;2022-08-19T05:34:00;101253.06099999999;;;25.4;unknown
73422;BME280;61637;47.760;-122.022;2022-08-19T05:36:00;101253.06099999999;;;25.3;unknown
73422;BME280;61637;47.760;-122.022;2022-08-19T05:38:01;101253.06099999999;;;25.2;unknown
73422;BME280;61637;47.760;-122.022;2022-08-19T05:40:00;101253.06099999999;;;25.1;unknown
73422;BME280;61637;47.760;-122.022;2022-08-19T05:42:01;101253.06099999999;;;25.1;unknown
73422;BME280;61637;47.760;-122.022;2022-08-19T05:44:01;101253.06099999999;;;25.0;unknown
73422;BME280;61637;47.760;-122.022;2022-08-19T05:46:00;101253.06099999999;;;24.9;unknown
73422;BME280;61637;47.760;-122.022;2022-08-19T05:48:00;101253.06099999999;;;24.9;unknown
73422;BME280;61637;47.760;-122.022;2022-08-19T05:50:00;101253.06099999999;;;24.8;unknown
73422;BME280;61637;47.760;-122.022;2022-08-19T05:52:01;101253.06099999999;;;24.8;unknown
73422;BME280;61637;47.760;-122.022;2022-08-19T05:54:00;101253.06099999999;;;24.7;unknown
73422;BME280;61637;47.760;-122.022;2022-08-19T05:56:03;101253.06099999999;;;24.7;unknown
73422;BME280;61637;47.760;-122.022;2022-08-19T05:58:00;101253.06099999999;;;24.6;unknown
73422;BME280;61637;47.760;-122.022;2022-08-19T06:00:00;101253.06099999999;;;24.8;unknown
73422;BME280;61637;47.760;-122.022;2022-08-19T06:02:01;101253.06099999999;;;24.8;unknown
73422;BME280;61637;47.760;-122.022;2022-08-19T06:04:00;101253.06099999999;;;24.8;unknown
73422;BME280;61637;47.760;-122.022;2022-08-19T06:06:01;101253.06099999999;;;24.8;unknown
73422;BME280;61637;47.760;-122.022;2022-08-19T06:08:00;101253.06099999999;;;24.9;unknown
73422;BME280;61637;47.760;-122.022;2022-08-19T06:10:00;101253.06099999999;;;25.4;unknown
73422;BME280;61637;47.760;-122.022;2022-08-19T06:12:00;101253.06099999999;;;25.7;unknown
73422;BME280;61637;47.760;-122.022;2022-08-19T06:14:02;101253.06099999999;;;25.7;unknown
73422;BME280;61637;47.760;-122.022;2022-08-19T06:16:00;101253.06099999999;;;25.6;unknown
73422;BME280;61637;47.760;-122.022;2022-08-19T06:18:00;101253.06099999999;;;25.6;unknown
73422;BME280;61637;47.760;-122.022;2022-08-19T06:20:00;101253.06099999999;;;25.6;unknown
73422;BME280;61637;47.760;-122.022;2022-08-19T06:22:00;101253.06099999999;;;25.6;unknown
73422;BME280;61637;47.760;-122.022;2022-08-19T06:24:00;101253.06099999999;;;25.4;unknown
73422;BME280;61637;47.760;-122.022;2022-08-19T06:26:00;101253.06099999999;;;25.4;unknown
73422;BME280;61637;47.760;-122.022;2022-08-19T06:28:00;101253.06099999999;;;25.7;unknown
73422;BME280;61637;47.760;-122.022;2022-08-19T06:30:00;101253.06099999999;;;25.9;unknown
73422;BME280;61637;47.760;-122.022;2022-08-19T06:32:01;101253.06099999999;;;25.9;unknown
73422;BME280;61637;47.760;-122.022;2022-08-19T06:34:01;101253.06099999999;;;25.9;unknown
73422;BME280;61637;47.760;-122.022;2022-08-19T06:36:00;101253.06099999999;;;25.9;unknown
73422;BME280;61637;47.760;-122.022;2022-08-19T06:38:01;101253.06099999999;;;25.9;unknown
73422;BME280;61637;47.760;-122.022;2022-08-19T06:40:00;101253.06099999999;;;25.9;unknown
73422;BME280;61637;47.760;-122.022;2022-08-19T06:42:01;101253.06099999999;;;25.9;unknown
73422;BME280;61637;47.760;-122.022;2022-08-19T06:44:00;101253.06099999999;;;26.2;unknown
73422;BME280;61637;47.760;-122.022;2022-08-19T06:46:00;101253.06099999999;;;26.4;unknown
73422;BME280;61637;47.760;-122.022;2022-08-19T06:48:00;101253.06099999999;;;26.5;unknown
73422;BME280;61637;47.760;-122.022;2022-08-19T06:50:01;101253.06099999999;;;26.6;unknown
73422;BME280;61637;47.760;-122.022;2022-08-19T06:52:00;101253.06099999999;;;26.6;unknown
73422;BME280;61637;47.760;-122.022;2022-08-19T06:54:00;101253.06099999999;;;26.6;unknown
73422;BME280;61637;47.760;-122.022;2022-08-19T06:56:00;101253.06099999999;;;26.4;unknown
73422;BME280;61637;47.760;-122.022;2022-08-19T06:58:01;101253.06099999999;;;26.3;unknown
73422;BME280;61637;47.760;-122.022;2022-08-19T07:00:00;101253.06099999999;;;26.2;unknown
73422;BME280;61637;47.760;-122.022;2022-08-19T07:02:02;101253.06099999999;;;26.3;unknown
73422;BME280;61637;47.760;-122.022;2022-08-19T07:04:00;101253.06099999999;;;26.3;unknown
73422;BME280;61637;47.760;-122.022;2022-08-19T07:06:02;101253.06099999999;;;26.3;unknown
73422;BME280;61637;47.760;-122.022;2022-08-19T07:08:00;101253.06099999999;;;26.4;unknown
73422;BME280;61637;47.760;-122.022;2022-08-19T07:10:00;101253.06099999999;;;26.3;unknown
73422;BME280;61637;47.760;-122.022;2022-08-19T07:12:00;101253.06099999999;;;26.3;unknown
73422;BME280;61637;47.760;-122.022;2022-08-19T07:14:01;101253.06099999999;;;26.2;unknown
73422;BME280;61637;47.760;-122.022;2022-08-19T07:16:02;101253.06099999999;;;26.2;unknown
73422;BME280;61637;47.760;-122.022;2022-08-19T07:18:00;101253.06099999999;;;26.2;unknown
73422;BME280;61637;47.760;-122.022;2022-08-19T07:20:00;101253.06099999999;;;26.1;unknown
73422;BME280;61637;47.760;-122.022;2022-08-19T07:22:01;101253.06099999999;;;26.0;unknown
73422;BME280;61637;47.760;-122.022;2022-08-19T07:24:00;101253.06099999999;;;25.8;unknown
73422;BME280;61637;47.760;-122.022;2022-08-19T07:26:04;101253.06099999999;;;25.7;unknown
73422;BME280;61637;47.760;-122.022;2022-08-19T07:28:00;101253.06099999999;;;25.4;unknown
73422;BME280;61637;47.760;-122.022;2022-08-19T07:30:00;101253.06099999999;;;25.3;unknown
73422;BME280;61637;47.760;-122.022;2022-08-19T07:32:00;101253.06099999999;;;25.1;unknown
73422;BME280;61637;47.760;-122.022;2022-08-19T07:34:00;101253.06099999999;;;24.9;unknown
73422;BME280;61637;47.760;-122.022;2022-08-19T07:36:00;101253.06099999999;;;25.0;unknown
73422;BME280;61637;47.760;-122.022;2022-08-19T07:38:00;101253.06099999999;;;25.1;unknown
73422;BME280;61637;47.760;-122.022;2022-08-19T07:40:00;101253.06099999999;;;25.2;unknown
73422;BME280;61637;47.760;-122.022;2022-08-19T07:42:01;101253.06099999999;;;25.1;unknown
73422;BME280;61637;47.760;-122.022;2022-08-19T07:44:00;101253.06099999999;;;24.9;unknown
73422;BME280;61637;47.760;-122.022;2022-08-19T07:46:00;101253.06099999999;;;24.9;unknown
73422;BME280;61637;47.760;-122.022;2022-08-19T07:48:00;101253.06099999999;;;24.7;unknown
73422;BME280;61637;47.760;-122.022;2022-08-19T07:50:00;101253.06099999999;;;24.7;unknown
73422;BME280;61637;47.760;-122.022;2022-08-19T07:52:02;101253.06099999999;;;24.8;unknown
73422;BME280;61637;47.760;-122.022;2022-08-19T07:54:00;101253.06099999999;;;24.8;unknown
73422;BME280;61637;47.760;-122.022;2022-08-19T07:56:00;101253.06099999999;;;24.8;unknown
73422;BME280;61637;47.760;-122.022;2022-08-19T07:58:00;101253.06099999999;;;24.7;unknown
73422;BME280;61637;47.760;-122.022;2022-08-19T08:00:00;101253.06099999999;;;24.6;unknown
73422;BME280;61637;47.760;-122.022;2022-08-19T08:02:00;101253.06099999999;;;24.5;unknown
73422;BME280;61637;47.760;-122.022;2022-08-19T08:04:00;101253.06099999999;;;24.7;unknown
73422;BME280;61637;47.760;-122.022;2022-08-19T08:06:00;101253.06099999999;;;24.9;unknown
73422;BME280;61637;47.760;-122.022;2022-08-19T08:08:00;101253.06099999999;;;24.9;unknown
73422;BME280;61637;47.760;-122.022;2022-08-19T08:10:00;101253.06099999999;;;25.1;unknown
73422;BME280;61637;47.760;-122.022;2022-08-19T08:12:01;101253.06099999999;;;25.2;unknown
73422;BME280;61637;47.760;-122.022;2022-08-19T08:14:01;101253.06099999999;;;25.2;unknown
73422;BME280;61637;47.760;-122.022;2022-08-19T08:16:00;101253.06099999999;;;25.3;unknown
73422;BME280;61637;47.760;-122.022;2022-08-19T08:18:00;101253.06099999999;;;25.3;unknown
73422;BME280;61637;47.760;-122.022;2022-08-19T08:20:00;101253.06099999999;;;25.4;unknown
73422;BME280;61637;47.760;-122.022;2022-08-19T08:22:01;101253.06099999999;;;25.3;unknown
73422;BME280;61637;47.760;-122.022;2022-08-19T08:24:00;101253.06099999999;;;25.1;unknown
73422;BME280;61637;47.760;-122.022;2022-08-19T08:26:00;101253.06099999999;;;24.8;unknown
73422;BME280;61637;47.760;-122.022;2022-08-19T08:28:00;101253.06099999999;;;24.7;unknown
73422;BME280;61637;47.760;-122.022;2022-08-19T08:30:00;101253.06099999999;;;24.9;unknown
73422;BME280;61637;47.760;-122.022;2022-08-19T08:32:00;101253.06099999999;;;25.1;unknown
73422;BME280;61637;47.760;-122.022;2022-08-19T08:34:00;101253.06099999999;;;25.0;unknown
73422;BME280;61637;47.760;-122.022;2022-08-19T08:36:00;101253.06099999999;;;24.8;unknown
73422;BME280;61637;47.760;-122.022;2022-08-19T08:38:00;101253.06099999999;;;24.7;unknown
73422;BME280;61637;47.760;-122.022;2022-08-19T08:40:02;101253.06099999999;;;24.7;unknown
73422;BME280;61637;47.760;-122.022;2022-08-19T08:42:01;101253.06099999999;;;24.6;unknown
73422;BME280;61637;47.760;-122.022;2022-08-19T08:44:00;101253.06099999999;;;24.7;unknown
73422;BME280;61637;47.760;-122.022;2022-08-19T08:46:01;101253.06099999999;;;24.9;unknown
73422;BME280;61637;47.760;-122.022;2022-08-19T08:48:02;101253.06099999999;;;25.1;unknown
73422;BME280;61637;47.760;-122.022;2022-08-19T08:50:03;100914.42199999999;;;25.2;unknown
73422;BME280;61637;47.760;-122.022;2022-08-19T08:52:03;100914.42199999999;;;25.1;unknown
73422;BME280;61637;47.760;-122.022;2022-08-19T08:54:00;100914.42199999999;;;24.9;unknown